ETHF/FRZ METAR and TAF weather

Enter ICAO airport designator
Station Type Date Time Source
ETHF METAR 2021/05/10 00:20 UTC NOAA

ETHF 100020Z AUTO 18001KT 9999 // ////// 13/09 Q1004 ///


Station Type Date Time Source
ETHF Decoded METAR 2021/05/10 00:20 UTC NOAA

Fritzlar, Germany (ETHF) 51-07N 009-17E 181M
May 09, 2021 - 08:20 PM EDT / 2021.05.10 0020 UTC
Wind: from the S (180 degrees) at 1 MPH (1 KT):0
Visibility: greater than 7 mile(s):0
Temperature: 55 F (13 C)
Dew Point: 48 F (9 C)
Relative Humidity: 76%
Pressure (altimeter): 29.65 in. Hg (1004 hPa)
ob: ETHF 100020Z AUTO 18001KT 9999 // ////// 13/09 Q1004 ///
cycle: 0

Station Type Date Time Source
ETHF TAF 2020/09/07 12:21 UTC NOAA

TAF ETHF 071611Z 0712/0802 VRB02KT 9999 NSW FEW030 PROB30 0723/0802 VRB01KT 5000 MIFG SKC

Example: see airport list